Dades meteomassalio
Diari Summary for Febrer 2, 2017 Units:  Metric    English   Both
« Previous Day
Next Day »
Diari Semanal Mensual Anual Personalitzat
  Maxima: Minima: Mijana:
Temperatura: -17.8 °C -16.4 °C -13.9 °C
Rosada: -17.8 °C -17 °C -14.7 °C
Humitat: Humidity % 79 % 91 %
Velocitat del vent: 0 km/h 0 km/h 4.2 km/h
Racha vent: 0 km/h - -
Vent:- - WSW
Pressio: 0 hPa 34246 hPa -
Pluja: 129.54 mm    
Historical Graphs
 
 
Tabular Data for Febrer 2, 2017
Time Temperature Dew Point Pressure Wind Wind Speed Wind Gust Humidity Rainfall Rate (Hourly) solar Conditions
-17.8 °C -17.8 °C 0 hPa Calm     Humidity % 0 mm SolarRadiationWatts/m^2 W/m2 Conditions
00:04 -14.2 °C -14.8 °C 34452.6 hPa West 17.9 km/h   93 % 0 mm 0.0 W/m2 RA
00:09 -14.1 °C -14.7 °C 34452.6 hPa Calm     93 % 0 mm 0.0 W/m2 CLR
00:14 -14.2 °C -14.8 °C 34452.6 hPa Calm     92 % 0 mm 0.0 W/m2 CLR
00:19 -14.2 °C -14.8 °C 34452.6 hPa Calm     93 % 0 mm 0.0 W/m2 CLR
00:24 -14.2 °C -14.8 °C 34452.6 hPa Calm     93 % 0 mm 0.0 W/m2 CLR
00:29 -14.3 °C -14.9 °C 34452.6 hPa Calm     92 % 0 mm 0.0 W/m2 CLR
00:34 -14.3 °C -15 °C 34452.6 hPa Calm     92 % 0 mm 0.0 W/m2 CLR
00:39 -14.4 °C -15.1 °C 34442.4 hPa Calm     92 % 0 mm 0.0 W/m2 CLR
00:44 -14.4 °C -15.1 °C 34452.6 hPa Calm     92 % 0 mm 0.0 W/m2 CLR
00:49 -14.5 °C -15.2 °C 34442.4 hPa Calm     92 % 0 mm 0.0 W/m2 CLR
00:54 -14.6 °C -15.2 °C 34442.4 hPa Calm     92 % 0 mm 0.0 W/m2 CLR
00:59 -14.6 °C -15.3 °C 34442.4 hPa Calm     92 % 0 mm 0.0 W/m2 CLR
01:04 -14.6 °C -15.2 °C 34442.4 hPa SSW 9 km/h 9 km/h 93 % 0 mm 0.0 W/m2 CLR
01:09 -14.6 °C -15.1 °C 34442.4 hPa Calm     93 % 0 mm 0.0 W/m2 CLR
01:14 -14.6 °C -15.3 °C 34442.4 hPa Calm     92 % 0 mm 0.0 W/m2 CLR
01:19 -14.8 °C -15.4 °C 34442.4 hPa Calm     92 % 0 mm 0.0 W/m2 CLR
01:24 -14.8 °C -15.5 °C 34442.4 hPa Calm     92 % 0 mm 0.0 W/m2 CLR
01:29 -14.9 °C -15.6 °C 34442.4 hPa Calm     92 % 0 mm 0.0 W/m2 CLR
01:34 -14.9 °C -15.5 °C 34442.4 hPa Calm     93 % 0 mm 0.0 W/m2 CLR
01:39 -14.8 °C -15.4 °C 34442.4 hPa SW 6 km/h 6 km/h 93 % 0 mm 0.0 W/m2 CLR
01:44 -14.9 °C -15.4 °C 34442.4 hPa Calm     93 % 0 mm 0.0 W/m2 CLR
01:49 -14.9 °C -15.4 °C 34442.4 hPa Calm     93 % 0 mm 0.0 W/m2 CLR
01:54 -14.9 °C -15.4 °C 34442.4 hPa Calm     93 % 0 mm 0.0 W/m2 CLR
01:59 -14.9 °C -15.4 °C 34442.4 hPa Calm     93 % 0 mm 0.0 W/m2 CLR
02:04 -14.9 °C -15.6 °C 34442.4 hPa Calm     93 % 0 mm 0.0 W/m2 CLR
02:09 -15.1 °C -15.8 °C 34442.4 hPa Calm     92 % 0 mm 0.0 W/m2 CLR
02:14 -15.2 °C -15.7 °C 34428.8 hPa Calm     93 % 0 mm 0.0 W/m2 CLR
02:19 -15.3 °C -15.9 °C 34442.4 hPa Calm     92 % 0 mm 0.0 W/m2 CLR
02:24 -15.2 °C -15.8 °C 34442.4 hPa Calm     93 % 0 mm 0.0 W/m2 CLR
02:29 -15.3 °C -15.9 °C 34428.8 hPa Calm     93 % 0 mm 0.0 W/m2 CLR
02:34 -15.4 °C -15.9 °C 34428.8 hPa Calm     93 % 0 mm 0.0 W/m2 CLR
02:39 -15.4 °C -16 °C 34428.8 hPa Calm     93 % 0 mm 0.0 W/m2 CLR
02:44 -15.4 °C -16 °C 34428.8 hPa Calm     93 % 0 mm 0.0 W/m2 CLR
02:46 -15.4 °C -16 °C 34428.8 hPa Calm     93 % 0 mm 0.0 W/m2 CLR
02:51 -15.4 °C -16 °C 34428.8 hPa Calm     93 % 0 mm 0.0 W/m2 CLR
02:56 -15.4 °C -15.9 °C 34428.8 hPa Calm     93 % 0 mm 0.0 W/m2 CLR
03:01 -15.3 °C -15.9 °C 34428.8 hPa Calm     93 % 0 mm 0.0 W/m2 CLR
03:06 -15.2 °C -15.8 °C 34428.8 hPa Calm     93 % 0 mm 0.0 W/m2 CLR
03:11 -15.3 °C -15.9 °C 34428.8 hPa Calm     93 % 0 mm 0.0 W/m2 CLR
03:16 -15.4 °C -16 °C 34428.8 hPa Calm     93 % 0 mm 0.0 W/m2 CLR
03:21 -15.5 °C -16.1 °C 34428.8 hPa Calm     93 % 0 mm 0.0 W/m2 CLR
03:26 -15.5 °C -16.1 °C 34418.7 hPa Calm     93 % 0 mm 0.0 W/m2 CLR
03:31 -15.5 °C -16.1 °C 34418.7 hPa Calm     93 % 0 mm 0.0 W/m2 CLR
03:36 -15.5 °C -16.1 °C 34418.7 hPa Calm     93 % 0 mm 0.0 W/m2 CLR
03:41 -15.5 °C -16.1 °C 34418.7 hPa Calm     93 % 0 mm 0.0 W/m2 CLR
03:46 -15.6 °C -16.2 °C 34418.7 hPa Calm     93 % 0 mm 0.0 W/m2 CLR
03:51 -15.7 °C -16.2 °C 34418.7 hPa Calm     93 % 0 mm 0.0 W/m2 CLR
03:56 -15.7 °C -16.3 °C 34418.7 hPa Calm     93 % 0 mm 0.0 W/m2 CLR
04:01 -15.7 °C -16.3 °C 34418.7 hPa Calm     93 % 0 mm 0.0 W/m2 CLR
04:06 -15.7 °C -16.2 °C 34418.7 hPa Calm     93 % 0 mm 0.0 W/m2 CLR
04:11 -15.7 °C -16.2 °C 34418.7 hPa Calm     93 % 0 mm 0.0 W/m2 CLR
04:16 -15.7 °C -16.3 °C 34405.1 hPa Calm     93 % 0 mm 0.0 W/m2 CLR
04:21 -15.6 °C -16.2 °C 34405.1 hPa SW 9 km/h 9 km/h 93 % 0 mm 0.0 W/m2 CLR
04:26 -15.6 °C -16.2 °C 34405.1 hPa SW 11.9 km/h 11.9 km/h 93 % 0 mm 0.0 W/m2 CLR
04:31 -15.6 °C -16.2 °C 34405.1 hPa SSW 9 km/h   93 % 0 mm 0.0 W/m2 CLR
04:37 -15.6 °C -16.2 °C 34405.1 hPa Calm     93 % 0 mm 0.0 W/m2 CLR
04:42 -15.6 °C -16.2 °C 34405.1 hPa Calm     93 % 0 mm 0.0 W/m2 CLR
04:47 -15.7 °C -16.2 °C 34405.1 hPa Calm     93 % 0 mm 0.0 W/m2 CLR
04:52 -15.7 °C -16.3 °C 34405.1 hPa Calm     93 % 0 mm 0.0 W/m2 CLR
04:57 -15.7 °C -16.3 °C 34405.1 hPa Calm     93 % 0 mm 0.0 W/m2 CLR
05:02 -15.8 °C -16.3 °C 34405.1 hPa Calm     93 % 0 mm 0.0 W/m2 CLR
05:07 -15.8 °C -16.3 °C 34395 hPa Calm     93 % 0 mm 0.0 W/m2 CLR
05:12 -15.7 °C -16.3 °C 34395 hPa Calm     93 % 0 mm 0.0 W/m2 CLR
05:17 -15.7 °C -16.3 °C 34395 hPa Calm     93 % 0 mm 0.0 W/m2 CLR
05:22 -15.7 °C -16.3 °C 34395 hPa Calm     93 % 0 mm 0.0 W/m2 CLR
05:27 -15.8 °C -16.3 °C 34395 hPa Calm     93 % 0 mm 0.0 W/m2 CLR
05:32 -15.8 °C -16.3 °C 34395 hPa Calm     93 % 0 mm 0.0 W/m2 CLR
05:37 -15.9 °C -16.4 °C 34395 hPa Calm     93 % 0 mm 0.0 W/m2 CLR
05:42 -15.9 °C -16.5 °C 34395 hPa Calm     93 % 0 mm 0.0 W/m2 CLR
05:47 -15.9 °C -16.5 °C 34395 hPa Calm     93 % 0 mm 0.0 W/m2 CLR
05:52 -16 °C -16.6 °C 34384.8 hPa Calm     93 % 0 mm 0.0 W/m2 CLR
05:57 -16 °C -16.6 °C 34384.8 hPa Calm     93 % 0 mm 0.0 W/m2 CLR
06:02 -16 °C -16.6 °C 34384.8 hPa Calm     93 % 0 mm 0.0 W/m2 CLR
06:07 -16 °C -16.6 °C 34384.8 hPa Calm     93 % 0 mm 0.0 W/m2 CLR
06:12 -15.9 °C -16.4 °C 34395 hPa Calm     94 % 0 mm 0.0 W/m2 CLR
06:17 -16 °C -16.6 °C 34395 hPa Calm     93 % 0 mm 0.0 W/m2 CLR
06:22 -16.1 °C -16.6 °C 34395 hPa Calm     93 % 0 mm 0.0 W/m2 CLR
06:27 -16.1 °C -16.7 °C 34395 hPa Calm     93 % 0 mm 0.0 W/m2 CLR
06:32 -16.2 °C -16.7 °C 34395 hPa Calm     93 % 0 mm 0.0 W/m2 CLR
06:37 -16.2 °C -16.7 °C 34395 hPa Calm     93 % 0 mm 0.0 W/m2 CLR
06:42 -16.2 °C -16.7 °C 34395 hPa Calm     93 % 0 mm 0.0 W/m2 CLR
06:47 -16.2 °C -16.7 °C 34395 hPa Calm     93 % 0 mm 0.0 W/m2 CLR
06:52 -16.2 °C -16.8 °C 34395 hPa Calm     93 % 0 mm 0.0 W/m2 CLR
06:57 -16.2 °C -16.8 °C 34395 hPa Calm     93 % 0 mm 0.0 W/m2 CLR
07:02 -16.3 °C -16.8 °C 34395 hPa Calm     93 % 0 mm 0.0 W/m2 CLR
07:07 -16.2 °C -16.8 °C 34395 hPa Calm     93 % 0 mm 0.0 W/m2 CLR
07:12 -16.3 °C -16.8 °C 34395 hPa Calm     93 % 0 mm 0.0 W/m2 CLR
07:17 -16.3 °C -16.8 °C 34395 hPa Calm     93 % 0 mm 0.0 W/m2 CLR
07:22 -16.3 °C -16.8 °C 34395 hPa Calm     94 % 0 mm 0.0 W/m2 CLR
07:27 -16.3 °C -16.8 °C 34395 hPa Calm     94 % 0 mm 0.0 W/m2 CLR
07:32 -16.3 °C -16.8 °C 34395 hPa Calm     94 % 0 mm 0.0 W/m2 CLR
07:37 -16.3 °C -16.9 °C 34395 hPa Calm     93 % 0 mm 0.0 W/m2 CLR
07:42 -16.3 °C -16.8 °C 34395 hPa Calm     94 % 0 mm 0.0 W/m2 CLR
07:47 -16.4 °C -17 °C 34395 hPa Calm     93 % 7.62 mm 0.0 W/m2 RA
07:52 -16.4 °C -16.9 °C 34405.1 hPa Calm     94 % 7.62 mm 0.0 W/m2 CLR
07:57 -16.4 °C -16.9 °C 34395 hPa Calm     94 % 7.62 mm 0.0 W/m2 CLR
08:02 -16.3 °C -16.8 °C 34395 hPa Calm     94 % 7.62 mm 7.0 W/m2 OVC
08:07 -16.3 °C -16.8 °C 34395 hPa Calm     94 % 7.62 mm 14.0 W/m2 OVC
08:12 -16.2 °C -16.7 °C 34405.1 hPa Calm     94 % 7.62 mm 21.0 W/m2 BKN
08:17 -16.2 °C -16.7 °C 34395 hPa Calm     94 % 7.62 mm 21.0 W/m2 BKN
08:22 -16.2 °C -16.7 °C 34395 hPa Calm     94 % 7.62 mm 26.0 W/m2 BKN
08:27 -16.2 °C -16.6 °C 34395 hPa Calm     94 % 7.62 mm 25.0 W/m2 BKN
08:32 -16.1 °C -16.6 °C 34395 hPa Calm     94 % 7.62 mm 30.0 W/m2 BKN
08:37 -16 °C -16.5 °C 34395 hPa Calm     94 % 7.62 mm 33.0 W/m2 BKN
08:42 -15.9 °C -16.4 °C 34395 hPa Calm     94 % 7.62 mm 33.0 W/m2 BKN
08:47 -15.8 °C -16.3 °C 34384.8 hPa Calm     94 % 0 mm 30.0 W/m2 BKN
08:52 -15.7 °C -16.2 °C 34384.8 hPa Calm     94 % 0 mm 30.0 W/m2 BKN
08:57 -15.7 °C -16.2 °C 34384.8 hPa Calm     94 % 0 mm 28.0 W/m2 BKN
08:59 -15.7 °C -16.2 °C 34384.8 hPa Calm     94 % 0 mm 28.0 W/m2 BKN
09:04 -15.6 °C -16.1 °C 34384.8 hPa Calm     94 % 0 mm 25.0 W/m2 BKN
09:09 -15.6 °C -16.1 °C 34384.8 hPa Calm     94 % 0 mm 23.0 W/m2 BKN
09:14 -15.5 °C -16 °C 34384.8 hPa Calm     94 % 0 mm 25.0 W/m2 BKN
09:19 -15.5 °C -16 °C 34384.8 hPa Calm     94 % 0 mm 25.0 W/m2 BKN
09:24 -15.5 °C -16 °C 34384.8 hPa Calm     94 % 0 mm 30.0 W/m2 BKN
09:29 -15.4 °C -15.9 °C 34384.8 hPa Calm     94 % 0 mm 37.0 W/m2 BKN
09:34 -15.3 °C -15.8 °C 34384.8 hPa Calm     94 % 0 mm 33.0 W/m2 BKN
09:39 -15.3 °C -15.8 °C 34395 hPa Calm     94 % 0 mm 28.0 W/m2 BKN
09:44 -15.2 °C -15.7 °C 34395 hPa Calm     94 % 0 mm 26.0 W/m2 BKN
09:49 -15.2 °C -15.7 °C 34395 hPa Calm     94 % 0 mm 33.0 W/m2 BKN
09:54 -15.2 °C -15.7 °C 34395 hPa Calm     94 % 0 mm 42.0 W/m2 BKN
09:59 -15.1 °C -15.6 °C 34395 hPa Calm     94 % 0 mm 46.0 W/m2 BKN
10:04 -15.1 °C -15.5 °C 34395 hPa Calm     94 % 0 mm 56.0 W/m2 SCT
10:09 -14.9 °C -15.4 °C 34395 hPa Calm     94 % 0 mm 65.0 W/m2 SCT
10:14 -14.8 °C -15.3 °C 34395 hPa Calm     94 % 0 mm 72.0 W/m2 SCT
10:19 -14.8 °C -15.3 °C 34395 hPa Calm     94 % 0 mm 83.0 W/m2 FEW
10:24 -14.7 °C -15.2 °C 34395 hPa Calm     94 % 0 mm 93.0 W/m2 FEW
10:29 -14.6 °C -15.1 °C 34395 hPa Calm     94 % 0 mm 100.0 W/m2 CLR
10:34 -14.5 °C -15 °C 34395 hPa Calm     94 % 0 mm 111.0 W/m2 CLR
10:39 -14.4 °C -14.9 °C 34395 hPa Calm     94 % 0 mm 120.0 W/m2 CLR
10:44 -14.4 °C -14.9 °C 34395 hPa Calm     93 % 0 mm 100.0 W/m2 CLR
10:49 -14.3 °C -14.9 °C 34395 hPa Calm     93 % 0 mm 67.0 W/m2 CLR
10:54 -14.3 °C -14.8 °C 34395 hPa Calm     93 % 7.62 mm 60.0 W/m2 RA
10:59 -14.2 °C -14.8 °C 34395 hPa Calm     93 % 7.62 mm 56.0 W/m2 SCT
11:04 -14.1 °C -14.6 °C 34395 hPa Calm     94 % 12.7 mm 53.0 W/m2 RA
11:09 -14 °C -14.6 °C 34395 hPa Calm     93 % 12.7 mm 46.0 W/m2 RA
11:14 -13.9 °C -14.6 °C 34395 hPa Calm     93 % 20.32 mm 44.0 W/m2 RA
11:19 -13.9 °C -14.5 °C 34395 hPa Calm     93 % 25.4 mm 51.0 W/m2 RA
11:24 -13.9 °C -14.5 °C 34405.1 hPa Calm     93 % 33.02 mm 62.0 W/m2 RA
11:29 -13.8 °C -14.4 °C 34395 hPa Calm     93 % 38.1 mm 69.0 W/m2 RA
11:34 -13.8 °C -14.3 °C 34395 hPa Calm     93 % 38.1 mm 76.0 W/m2 FEW
11:39 -13.7 °C -14.3 °C 34395 hPa Calm     93 % 45.72 mm 97.0 W/m2 RA
11:44 -13.7 °C -14.3 °C 34395 hPa East 6 km/h 6 km/h 93 % 50.8 mm 120.0 W/m2 RA
11:49 -13.7 °C -14.2 °C 34395 hPa Calm     93 % 50.8 mm 127.0 W/m2 CLR
11:54 -13.6 °C -14.1 °C 34395 hPa Calm     93 % 45.72 mm 109.0 W/m2 CLR
11:59 -13.4 °C -14.1 °C 34395 hPa Calm     93 % 50.8 mm 97.0 W/m2 RA
12:04 -13.4 °C -14 °C 34384.8 hPa Calm     93 % 45.72 mm 118.0 W/m2 CLR
12:10 -13.3 °C -13.9 °C 34384.8 hPa Calm     93 % 38.1 mm 123.0 W/m2 CLR
12:15 -13.3 °C -13.9 °C 34384.8 hPa Calm     93 % 38.1 mm 142.0 W/m2 CLR
12:20 -13.2 °C -13.8 °C 34371.3 hPa Calm     93 % 33.02 mm 137.0 W/m2 CLR
12:25 -13.1 °C -13.7 °C 34371.3 hPa Calm     93 % 25.4 mm 105.0 W/m2 CLR
12:30 -13 °C -13.6 °C 34371.3 hPa Calm     93 % 20.32 mm 111.0 W/m2 CLR
12:35 -12.9 °C -13.6 °C 34371.3 hPa Calm     93 % 20.32 mm 134.0 W/m2 CLR
12:40 -12.9 °C -13.5 °C 34361.1 hPa NE 9 km/h 9 km/h 93 % 12.7 mm 104.0 W/m2 CLR
12:45 -12.8 °C -13.4 °C 34361.1 hPa ENE 3.1 km/h   93 % 7.62 mm 109.0 W/m2 CLR
12:50 -12.7 °C -13.3 °C 34361.1 hPa ESE 15.6 km/h 15.6 km/h 93 % 7.62 mm 137.0 W/m2 CLR
12:55 -12.7 °C -13.3 °C 34347.6 hPa Calm     93 % 7.62 mm 144.0 W/m2 CLR
13:00 -12.6 °C -13.2 °C 34347.6 hPa Calm   0.3 km/h 93 % 0 mm 100.0 W/m2 CLR
13:05 -12.6 °C -13.2 °C 34347.6 hPa ENE 9 km/h 9 km/h 93 % 0 mm 84.0 W/m2 CLR
13:10 -12.6 °C -13.1 °C 34347.6 hPa Calm   2.1 km/h 93 % 0 mm 77.0 W/m2 CLR
13:15 -12.4 °C -13.2 °C 34347.6 hPa Calm     92 % 0 mm 69.0 W/m2 FEW
13:20 -12.4 °C -13.1 °C 34347.6 hPa Calm     92 % 0 mm 70.0 W/m2 FEW
13:25 -12.4 °C -13 °C 34337.4 hPa Calm     93 % 0 mm 100.0 W/m2 FEW
13:30 -12.4 °C -13.1 °C 34337.4 hPa Calm     92 % 0 mm 120.0 W/m2 CLR
13:35 -12.3 °C -13 °C 34327.3 hPa Calm     92 % 0 mm 132.0 W/m2 CLR
13:40 -12.3 °C -12.9 °C 34327.3 hPa Calm     92 % 0 mm 149.0 W/m2 CLR
13:45 -12.2 °C -12.9 °C 34327.3 hPa Calm     92 % 0 mm 162.0 W/m2 CLR
13:50 -12.2 °C -12.8 °C 34313.7 hPa Calm     92 % 0 mm 171.0 W/m2 CLR
13:55 -12.1 °C -12.9 °C 34313.7 hPa Calm     91 % 0 mm 165.0 W/m2 CLR
14:00 -12.1 °C -12.8 °C 34303.6 hPa Calm     91 % 0 mm 139.0 W/m2 CLR
14:05 -12 °C -12.7 °C 34303.6 hPa Calm     91 % 0 mm 130.0 W/m2 CLR
14:10 -11.9 °C -12.7 °C 34303.6 hPa Calm     91 % 0 mm 144.0 W/m2 CLR
14:15 -11.9 °C -12.8 °C 34303.6 hPa Calm     90 % 0 mm 158.0 W/m2 CLR
14:20 -11.8 °C -12.7 °C 34303.6 hPa Calm     90 % 0 mm 160.0 W/m2 CLR
14:25 -11.8 °C -12.8 °C 34303.6 hPa Calm     89 % 0 mm 158.0 W/m2 CLR
14:30 -11.8 °C -12.7 °C 34293.4 hPa Calm     89 % 0 mm 155.0 W/m2 CLR
14:35 -11.7 °C -12.7 °C 34279.9 hPa Calm     89 % 0 mm 158.0 W/m2 CLR
14:40 -11.7 °C -12.6 °C 34279.9 hPa Calm     90 % 0 mm 165.0 W/m2 CLR
14:45 -11.7 °C -12.6 °C 34279.9 hPa Calm     90 % 0 mm 176.0 W/m2 CLR
14:50 -11.6 °C -12.4 °C 34279.9 hPa Calm     90 % 0 mm 193.0 W/m2 CLR
14:55 -11.6 °C -12.4 °C 34279.9 hPa Calm     90 % 0 mm 209.0 W/m2 CLR
15:00 -11.5 °C -12.3 °C 34269.7 hPa Calm     90 % 0 mm 225.0 W/m2 CLR
15:05 -11.4 °C -12.3 °C 34269.7 hPa Calm     90 % 0 mm 213.0 W/m2 CLR
15:10 -11.4 °C -12.3 °C 34256.2 hPa Calm     90 % 0 mm 202.0 W/m2 CLR
15:15 -11.3 °C -12.3 °C 34256.2 hPa Calm     89 % 0 mm 236.0 W/m2 CLR
15:20 -11.3 °C -12.2 °C 34246 hPa Calm     90 % 0 mm 232.0 W/m2 CLR
15:25 -11.3 °C -12.2 °C 34256.2 hPa Calm     90 % 0 mm 225.0 W/m2 CLR
15:30 -11.2 °C -12.2 °C 34256.2 hPa Calm     89 % 0 mm 190.0 W/m2 CLR
15:35 -11.2 °C -12.2 °C 34256.2 hPa Calm     89 % 0 mm 156.0 W/m2 CLR
15:40 -11.2 °C -12.1 °C 34246 hPa Calm     89 % 0 mm 141.0 W/m2 CLR
15:45 -11.2 °C -12.3 °C 34256.2 hPa Calm     88 % 0 mm 135.0 W/m2 CLR
15:50 -11.2 °C -12.2 °C 34256.2 hPa Calm     88 % 0 mm 144.0 W/m2 CLR
15:55 -11.2 °C -12.3 °C 34256.2 hPa Calm     87 % 0 mm 146.0 W/m2 CLR
16:00 -11.1 °C -12.2 °C 34256.2 hPa Calm     88 % 0 mm 134.0 W/m2 CLR
16:05 -11.1 °C -12.2 °C 34256.2 hPa Calm     88 % 0 mm 125.0 W/m2 CLR
16:10 -11.1 °C -12.2 °C 34256.2 hPa Calm     88 % 0 mm 109.0 W/m2 CLR
16:15 -11.1 °C -12.2 °C 34256.2 hPa Calm     88 % 0 mm 109.0 W/m2 CLR
16:20 -11.1 °C -12.1 °C 34256.2 hPa Calm     88 % 0 mm 97.0 W/m2 CLR
16:25 -11.1 °C -12.1 °C 34256.2 hPa Calm     88 % 0 mm 83.0 W/m2 CLR
16:30 -11.1 °C -12.3 °C 34256.2 hPa Calm     87 % 0 mm 72.0 W/m2 FEW
16:35 -11.1 °C -12.2 °C 34269.7 hPa Calm     88 % 0 mm 67.0 W/m2 FEW
16:40 -11.1 °C -12.3 °C 34269.7 hPa Calm     87 % 0 mm 67.0 W/m2 FEW
16:46 -11.1 °C -12.3 °C 34269.7 hPa Calm     87 % 0 mm 54.0 W/m2 SCT
16:51 -11.1 °C -12.3 °C 34269.7 hPa Calm     87 % 0 mm 49.0 W/m2 SCT
16:56 -11.1 °C -12.3 °C 34269.7 hPa Calm     87 % 0 mm 56.0 W/m2 SCT
17:01 -11.1 °C -12.3 °C 34256.2 hPa Calm     87 % 0 mm 51.0 W/m2 SCT
17:06 -11.1 °C -12.2 °C 34269.7 hPa Calm     88 % 0 mm 44.0 W/m2 SCT
17:11 -11.1 °C -12.2 °C 34269.7 hPa Calm     88 % 0 mm 44.0 W/m2 SCT
17:16 -11.2 °C -12.2 °C 34256.2 hPa Calm     88 % 0 mm 40.0 W/m2 BKN
17:21 -11.2 °C -12.3 °C 34256.2 hPa Calm     88 % 0 mm 35.0 W/m2 BKN
17:26 -11.2 °C -12.2 °C 34256.2 hPa SSW 15 km/h 15 km/h 89 % 0 mm 33.0 W/m2 BKN
17:31 -11.2 °C -12.2 °C 34256.2 hPa SSE 10.3 km/h 10.3 km/h 89 % 0 mm 35.0 W/m2 BKN
17:36 -11.2 °C -12.3 °C 34256.2 hPa SSE 6 km/h   88 % 0 mm 33.0 W/m2 BKN
17:41 -11.2 °C -12.3 °C 34256.2 hPa Calm     88 % 0 mm 28.0 W/m2 BKN
17:46 -11.2 °C -12.2 °C 34269.7 hPa Calm     88 % 0 mm 25.0 W/m2 BKN
17:51 -11.2 °C -12.3 °C 34269.7 hPa Calm     87 % 0 mm 23.0 W/m2 BKN
17:56 -11.2 °C -12.3 °C 34279.9 hPa Calm     87 % 0 mm 18.0 W/m2 BKN
18:01 -11.2 °C -12.3 °C 34279.9 hPa West 9 km/h 9 km/h 87 % 0 mm 11.0 W/m2 BKN
18:06 -11.1 °C -12.4 °C 34293.4 hPa SW 17.9 km/h 17.9 km/h 86 % 0 mm 5.0 W/m2 BKN
18:11 -11.1 °C -12.4 °C 34337.4 hPa WSW 95.8 km/h 95.8 km/h 85 % 0 mm 0.0 W/m2 OVC
18:16 -11.8 °C -13.5 °C 34395 hPa NW 111.4 km/h 111.4 km/h 81 % 7.62 mm 0.0 W/m2 RA
18:21 -12.4 °C -13.8 °C 34405.1 hPa NW 83.4 km/h 83.4 km/h 85 % 20.32 mm 0.0 W/m2 RA
18:26 -12.7 °C -13.9 °C 34405.1 hPa NW 68.6 km/h 68.6 km/h 87 % 38.1 mm 0.0 W/m2 RA
18:31 -12.9 °C -13.9 °C 34405.1 hPa NW 53.6 km/h 53.6 km/h 88 % 50.8 mm 0.0 W/m2 RA
18:36 -12.9 °C -13.9 °C 34418.7 hPa NW 50.7 km/h 50.7 km/h 89 % 58.42 mm 0.0 W/m2 RA
18:41 -12.9 °C -13.9 °C 34418.7 hPa NW 35.7 km/h 35.7 km/h 89 % 58.42 mm 0.0 W/m2 RA
18:46 -13 °C -13.9 °C 34405.1 hPa NW 35.7 km/h 35.7 km/h 89 % 63.5 mm 0.0 W/m2 RA
18:51 -13 °C -13.9 °C 34418.7 hPa NW 33.6 km/h 33.6 km/h 89 % 63.5 mm 0.0 W/m2 CLR
18:56 -12.9 °C -13.9 °C 34428.8 hPa NW 29.8 km/h 29.8 km/h 89 % 63.5 mm 0.0 W/m2 CLR
19:01 -12.9 °C -13.9 °C 34428.8 hPa WNW 17.9 km/h 17.9 km/h 89 % 63.5 mm 0.0 W/m2 CLR
19:06 -12.9 °C -14 °C 34428.8 hPa WNW 23.8 km/h 23.8 km/h 88 % 63.5 mm 0.0 W/m2 CLR
19:11 -12.9 °C -13.9 °C 34428.8 hPa WNW 29.8 km/h 29.8 km/h 88 % 63.5 mm 0.0 W/m2 CLR
19:16 -12.8 °C -13.9 °C 34428.8 hPa WNW 29.8 km/h 29.8 km/h 87 % 58.42 mm 0.0 W/m2 CLR
19:21 -12.7 °C -13.9 °C 34442.4 hPa WNW 9 km/h 9 km/h 86 % 45.72 mm 0.0 W/m2 CLR
19:26 -12.8 °C -13.9 °C 34442.4 hPa Calm     87 % 33.02 mm 0.0 W/m2 CLR
19:31 -12.9 °C -14 °C 34442.4 hPa Calm     88 % 12.7 mm 0.0 W/m2 CLR
19:36 -13.1 °C -14 °C 34442.4 hPa Calm     89 % 12.7 mm 0.0 W/m2 CLR
19:41 -13.1 °C -14 °C 34442.4 hPa Calm     90 % 7.62 mm 0.0 W/m2 CLR
19:46 -13.2 °C -14.1 °C 34428.8 hPa Calm     90 % 0 mm 0.0 W/m2 CLR
19:51 -13.3 °C -14.1 °C 34428.8 hPa Calm     91 % 0 mm 0.0 W/m2 CLR
19:56 -13.3 °C -14.2 °C 34428.8 hPa Calm     90 % 0 mm 0.0 W/m2 CLR
20:01 -13.4 °C -14.1 °C 34442.4 hPa Calm     91 % 0 mm 0.0 W/m2 CLR
20:06 -13.5 °C -14.3 °C 34452.6 hPa Calm     91 % 0 mm 0.0 W/m2 CLR
20:11 -13.5 °C -14.3 °C 34442.4 hPa WSW 15 km/h 15 km/h 91 % 0 mm 0.0 W/m2 CLR
20:16 -13.6 °C -14.3 °C 34428.8 hPa WSW 9 km/h 9 km/h 91 % 0 mm 0.0 W/m2 CLR
20:21 -13.7 °C -14.4 °C 34428.8 hPa Calm     91 % 0 mm 0.0 W/m2 CLR
20:26 -13.7 °C -14.3 °C 34442.4 hPa Calm     92 % 0 mm 0.0 W/m2 CLR
20:31 -13.7 °C -14.4 °C 34428.8 hPa Calm     92 % 0 mm 0.0 W/m2 CLR
20:36 -13.7 °C -14.4 °C 34428.8 hPa WSW 15.6 km/h 15.6 km/h 92 % 0 mm 0.0 W/m2 CLR
20:41 -13.7 °C -14.4 °C 34428.8 hPa WSW 23.8 km/h 23.8 km/h 92 % 0 mm 0.0 W/m2 CLR
20:46 -13.7 °C -14.4 °C 34428.8 hPa WSW 15 km/h 15 km/h 92 % 0 mm 0.0 W/m2 CLR
20:51 -13.7 °C -14.4 °C 34442.4 hPa West 9 km/h 9 km/h 92 % 0 mm 0.0 W/m2 CLR
20:56 -13.6 °C -14.4 °C 34452.6 hPa Calm     91 % 0 mm 0.0 W/m2 CLR
21:01 -13.7 °C -14.6 °C 34442.4 hPa Calm     90 % 0 mm 0.0 W/m2 CLR
21:06 -13.8 °C -14.6 °C 34442.4 hPa Calm     91 % 0 mm 0.0 W/m2 CLR
21:11 -13.9 °C -14.7 °C 34442.4 hPa Calm     91 % 0 mm 0.0 W/m2 CLR
21:16 -14.1 °C -14.8 °C 34442.4 hPa Calm     91 % 0 mm 0.0 W/m2 CLR
21:21 -14.2 °C -14.9 °C 34442.4 hPa Calm     91 % 0 mm 0.0 W/m2 CLR
21:26 -14.2 °C -14.8 °C 34442.4 hPa Calm     92 % 0 mm 0.0 W/m2 CLR
21:31 -14.2 °C -14.9 °C 34442.4 hPa Calm     92 % 0 mm 0.0 W/m2 CLR
21:36 -14.3 °C -14.9 °C 34452.6 hPa Calm     92 % 0 mm 0.0 W/m2 CLR
21:41 -14.3 °C -15 °C 34452.6 hPa Calm     92 % 0 mm 0.0 W/m2 CLR
21:46 -14.4 °C -15.1 °C 34452.6 hPa Calm     92 % 0 mm 0.0 W/m2 CLR
21:51 -14.4 °C -15.1 °C 34462.7 hPa Calm     92 % 0 mm 0.0 W/m2 CLR
21:56 -14.5 °C -15.2 °C 34452.6 hPa Calm     92 % 0 mm 0.0 W/m2 CLR
22:01 -14.6 °C -15.1 °C 34462.7 hPa Calm     93 % 0 mm 0.0 W/m2 CLR
22:06 -14.6 °C -15.1 °C 34462.7 hPa Calm     93 % 0 mm 0.0 W/m2 CLR
22:11 -14.6 °C -15.1 °C 34462.7 hPa Calm     93 % 0 mm 0.0 W/m2 CLR
22:16 -14.6 °C -15.2 °C 34476.3 hPa Calm     93 % 0 mm 0.0 W/m2 CLR
22:22 -14.6 °C -15.2 °C 34462.7 hPa WSW 15.6 km/h 15.6 km/h 93 % 0 mm 0.0 W/m2 CLR
22:26 -14.7 °C -15.2 °C 34462.7 hPa WSW 17.9 km/h 17.9 km/h 93 % 0 mm 0.0 W/m2 CLR
22:32 -14.6 °C -15.1 °C 34476.3 hPa WSW 6 km/h   93 % 0 mm 0.0 W/m2 CLR
22:37 -14.2 °C -14.8 °C 34476.3 hPa West 17.9 km/h 17.9 km/h 93 % 0 mm 0.0 W/m2 CLR
22:42 -13.5 °C -14.1 °C 34476.3 hPa WSW 20.9 km/h 20.9 km/h 93 % 0 mm 0.0 W/m2 CLR
22:47 -13.4 °C -14.4 °C 34476.3 hPa WSW 15 km/h 15 km/h 88 % 0 mm 0.0 W/m2 CLR
22:52 -13.6 °C -14.7 °C 34486.4 hPa WSW 3.1 km/h   87 % 0 mm 0.0 W/m2 CLR
22:57 -13.4 °C -14.5 °C 34486.4 hPa Calm     88 % 0 mm 0.0 W/m2 CLR
23:02 -13.6 °C -14.7 °C 34476.3 hPa WSW 11.9 km/h 11.9 km/h 87 % 0 mm 0.0 W/m2 CLR
23:07 -13.2 °C -14.3 °C 34486.4 hPa West 23.8 km/h 23.8 km/h 87 % 0 mm 0.0 W/m2 CLR
23:12 -12.7 °C -14.3 °C 34476.3 hPa West 26.9 km/h 26.9 km/h 82 % 0 mm 0.0 W/m2 CLR
23:17 -12.7 °C -14.3 °C 34476.3 hPa West 20.9 km/h 20.9 km/h 82 % 0 mm 0.0 W/m2 CLR
23:22 -12.7 °C -14.3 °C 34476.3 hPa WSW 11.9 km/h 11.9 km/h 82 % 0 mm 0.0 W/m2 CLR
23:27 -12.5 °C -14.3 °C 34476.3 hPa West 9 km/h 9 km/h 80 % 0 mm 0.0 W/m2 CLR
23:32 -12.5 °C -14.4 °C 34476.3 hPa Calm     79 % 0 mm 0.0 W/m2 CLR
23:37 -12.7 °C -14.6 °C 34476.3 hPa West 15.6 km/h 15.6 km/h 80 % 0 mm 0.0 W/m2 CLR
23:42 -12.8 °C -14.5 °C 34476.3 hPa West 11.9 km/h 11.9 km/h 81 % 0 mm 0.0 W/m2 CLR
23:47 -13.2 °C -14.8 °C 34476.3 hPa Calm     82 % 0 mm 0.0 W/m2 CLR
23:52 -13.4 °C -14.9 °C 34476.3 hPa Calm     84 % 0 mm 0.0 W/m2 CLR
23:57 -13.6 °C -14.8 °C 34476.3 hPa Calm     86 % 0 mm 0.0 W/m2 CLR
Lo Temps de Massalio
Compliments of Weather Underground - 1.25 mb